Impacts METAR Board
IDs:

KMNZ - Hamilton Muni, TX, US

Updated at: 0500 UTC 18 Jan 2022
Potential Impact None Slight Moderate High
Time 17/17Z 17/18Z 17/19Z 17/20Z 17/21Z 17/22Z 17/23Z 18/00Z 18/01Z 18/02Z 18/03Z 18/04Z 18/05Z
Temp58 62 65 67 69 68 67 59 53 50 48 48 45
Dewpt23 22 23 21 21 20 20 20 21 23 23 24 22
Altim30.19 30.17 30.14 30.08 30.07 30.05 30.04 30.03 30.04 30.04 30.03 30.02 30.02
VIS10 10 10 10 10 10 10 10 10 10 10 10 10
CIG-- -- -- -- -- -- -- -- -- -- -- -- --
CoverCLRCLRCLRCLRCLRCLRCLRCLRCLRCLRCLRCLRCLR
FltCatVFRVFRVFRVFRVFRVFRVFRVFRVFRVFRVFRVFRVFR
WX--------------------------
WDir170150160150160170170140150160170160170
WSpd7 11 7 9 10 11 10 7 8 8 8 8 5
WGst-- -- 15 15 -- -- -- -- -- -- -- -- --
Raw hourly METARs
KMNZ 171655Z AUTO 17007KT 10SM CLR 14/M05 A3019 RMK AO2 T01421049
KMNZ 171755Z AUTO 15011KT 10SM CLR 17/M05 A3017 RMK AO2 T01651055 10165 21010
KMNZ 171855Z AUTO 16007G15KT 10SM CLR 18/M05 A3014 RMK AO2 T01831051
KMNZ 171955Z AUTO 15009G15KT 10SM CLR 20/M06 A3008 RMK AO2 T01951060
KMNZ 172055Z AUTO 16010KT 10SM CLR 21/M06 A3007 RMK AO2 T02061062
KMNZ 172155Z AUTO 17011KT 10SM CLR 20/M06 A3005 RMK AO2 T02021064
KMNZ 172255Z AUTO 17010KT 10SM CLR 20/M06 A3004 RMK AO2 T01951064
KMNZ 172355Z AUTO 14007KT 10SM CLR 15/M06 A3003 RMK AO2 T01511065 10206 20151
KMNZ 180055Z AUTO 15008KT 10SM CLR 12/M06 A3004 RMK AO2 T01151060
KMNZ 180155Z AUTO 16008KT 10SM CLR 10/M05 A3004 RMK AO2 T01011051
KMNZ 180255Z AUTO 17008KT 10SM CLR 09/M05 A3003 RMK AO2 T00901048
KMNZ 180355Z AUTO 16008KT 10SM CLR 09/M05 A3002 RMK AO2 T00891047
KMNZ 180455Z AUTO 17005KT 10SM CLR 07/M06 A3002 RMK AO2 T00731058